Terminal Aerodrome Forecast
Issued by NWS Paducah, KY

Home | Current Version | Previous Version | Text Only | Print | Product List | Glossary On
Versions: 1 2 3 4 5 6 7 8 9 10 11 12 13 14 15 16 17 18 19 20
000
FTUS43 KPAH 261415 AAA
TAFEVV
TAF AMD
KEVV 261415Z 2614/2712 16010G18KT P6SM SCT025 OVC200
     FM261700 20012G20KT P6SM SCT025 BKN050
     FM262000 20012G18KT P6SM BKN050=

USA.gov is the U.S. government's official web portal to all federal, state and local government web resources and services.